Eastonville, Colorado
Current Conditions -  °F | °C
As of 11:06 AM on Thursday 18 Dec 2014 (Local Time) from KFLY Reporting Station
Broken Clouds Broken Clouds  
Wind Chill: 34°   Ceiling: 1300
Heat Index: 39°   Visibility: 10mi
Dew Point: 29°   Wind: 7mph
Humidity: 68%   Direction: 140°SE
Pressure: 30.05"   Gusts: NA
Location:  39.0051°N, 104.503°W
Report Text: KFLY 181806Z AUTO 14006KT 10SM BKN013 BKN022 04/M02 A3005 RMK AO2 T00381017
Loading
Personal Weather Stations






























Interactive Weather Map New forecast layout! Learn more

10-Day Weather Forecast

Advertisements
Track Severe Weather on mobile